sensor_id;sensor_type;location;lat;lon;timestamp;P1;durP1;ratioP1;P2;durP2;ratioP2
16393;SDS011;8306;51.128;4.476;2023-12-29T00:02:25;5.63;;;1.67;;
16393;SDS011;8306;51.128;4.476;2023-12-29T00:04:52;4.70;;;1.47;;
16393;SDS011;8306;51.128;4.476;2023-12-29T00:07:18;6.57;;;1.90;;
16393;SDS011;8306;51.128;4.476;2023-12-29T00:09:45;6.83;;;2.10;;
16393;SDS011;8306;51.128;4.476;2023-12-29T00:12:11;6.33;;;2.30;;
16393;SDS011;8306;51.128;4.476;2023-12-29T00:14:38;6.03;;;1.83;;
16393;SDS011;8306;51.128;4.476;2023-12-29T00:17:04;6.57;;;2.27;;
16393;SDS011;8306;51.128;4.476;2023-12-29T00:19:31;7.40;;;2.30;;
16393;SDS011;8306;51.128;4.476;2023-12-29T00:21:57;6.47;;;2.07;;
16393;SDS011;8306;51.128;4.476;2023-12-29T00:24:24;7.37;;;2.13;;
16393;SDS011;8306;51.128;4.476;2023-12-29T00:26:50;5.57;;;2.03;;
16393;SDS011;8306;51.128;4.476;2023-12-29T00:29:17;6.17;;;2.07;;
16393;SDS011;8306;51.128;4.476;2023-12-29T00:31:43;6.73;;;1.87;;
16393;SDS011;8306;51.128;4.476;2023-12-29T00:34:10;8.90;;;2.67;;
16393;SDS011;8306;51.128;4.476;2023-12-29T00:36:36;5.93;;;2.00;;
16393;SDS011;8306;51.128;4.476;2023-12-29T00:39:03;7.03;;;2.10;;
16393;SDS011;8306;51.128;4.476;2023-12-29T00:41:29;7.53;;;2.10;;
16393;SDS011;8306;51.128;4.476;2023-12-29T00:43:56;6.80;;;2.10;;
16393;SDS011;8306;51.128;4.476;2023-12-29T00:46:22;10.70;;;2.60;;
16393;SDS011;8306;51.128;4.476;2023-12-29T00:48:48;7.03;;;1.93;;
16393;SDS011;8306;51.128;4.476;2023-12-29T00:51:15;5.97;;;2.07;;
16393;SDS011;8306;51.128;4.476;2023-12-29T00:53:41;7.20;;;2.10;;
16393;SDS011;8306;51.128;4.476;2023-12-29T00:56:11;7.47;;;1.90;;
16393;SDS011;8306;51.128;4.476;2023-12-29T00:58:37;4.80;;;2.27;;
16393;SDS011;8306;51.128;4.476;2023-12-29T01:01:05;7.23;;;2.10;;
16393;SDS011;8306;51.128;4.476;2023-12-29T01:03:30;7.00;;;2.00;;
16393;SDS011;8306;51.128;4.476;2023-12-29T01:05:57;6.50;;;1.73;;
16393;SDS011;8306;51.128;4.476;2023-12-29T01:08:23;7.97;;;2.20;;
16393;SDS011;8306;51.128;4.476;2023-12-29T01:10:49;7.13;;;1.90;;
16393;SDS011;8306;51.128;4.476;2023-12-29T01:13:16;7.70;;;2.30;;
16393;SDS011;8306;51.128;4.476;2023-12-29T01:15:42;7.50;;;2.13;;
16393;SDS011;8306;51.128;4.476;2023-12-29T01:18:11;6.63;;;2.43;;
16393;SDS011;8306;51.128;4.476;2023-12-29T01:20:38;6.20;;;1.80;;
16393;SDS011;8306;51.128;4.476;2023-12-29T01:23:07;4.73;;;1.60;;
16393;SDS011;8306;51.128;4.476;2023-12-29T01:25:34;6.43;;;1.90;;
16393;SDS011;8306;51.128;4.476;2023-12-29T01:28:00;6.40;;;1.90;;
16393;SDS011;8306;51.128;4.476;2023-12-29T01:30:27;5.37;;;1.73;;
16393;SDS011;8306;51.128;4.476;2023-12-29T01:32:53;10.03;;;2.00;;
16393;SDS011;8306;51.128;4.476;2023-12-29T01:35:20;6.83;;;1.77;;
16393;SDS011;8306;51.128;4.476;2023-12-29T01:37:46;6.00;;;1.93;;
16393;SDS011;8306;51.128;4.476;2023-12-29T01:40:13;7.80;;;2.10;;
16393;SDS011;8306;51.128;4.476;2023-12-29T01:42:40;8.13;;;2.37;;
16393;SDS011;8306;51.128;4.476;2023-12-29T01:45:06;8.73;;;1.73;;
16393;SDS011;8306;51.128;4.476;2023-12-29T01:47:32;8.47;;;1.80;;
16393;SDS011;8306;51.128;4.476;2023-12-29T01:49:59;5.87;;;1.70;;
16393;SDS011;8306;51.128;4.476;2023-12-29T01:52:25;5.77;;;1.80;;
16393;SDS011;8306;51.128;4.476;2023-12-29T01:54:51;6.90;;;2.27;;
16393;SDS011;8306;51.128;4.476;2023-12-29T01:57:18;6.80;;;2.00;;
16393;SDS011;8306;51.128;4.476;2023-12-29T01:59:44;5.63;;;1.80;;
16393;SDS011;8306;51.128;4.476;2023-12-29T02:02:11;4.80;;;1.60;;
16393;SDS011;8306;51.128;4.476;2023-12-29T02:04:37;7.30;;;1.50;;
16393;SDS011;8306;51.128;4.476;2023-12-29T02:07:04;6.90;;;1.97;;
16393;SDS011;8306;51.128;4.476;2023-12-29T02:09:30;4.20;;;1.60;;
16393;SDS011;8306;51.128;4.476;2023-12-29T02:11:57;5.37;;;1.80;;
16393;SDS011;8306;51.128;4.476;2023-12-29T02:14:23;6.27;;;2.10;;
16393;SDS011;8306;51.128;4.476;2023-12-29T02:19:41;5.37;;;1.73;;
16393;SDS011;8306;51.128;4.476;2023-12-29T02:22:07;9.57;;;1.90;;
16393;SDS011;8306;51.128;4.476;2023-12-29T02:24:33;5.03;;;1.63;;
16393;SDS011;8306;51.128;4.476;2023-12-29T02:27:02;6.47;;;2.10;;
16393;SDS011;8306;51.128;4.476;2023-12-29T02:29:28;6.00;;;1.70;;
16393;SDS011;8306;51.128;4.476;2023-12-29T02:31:55;6.80;;;1.80;;
16393;SDS011;8306;51.128;4.476;2023-12-29T02:34:21;7.70;;;2.47;;
16393;SDS011;8306;51.128;4.476;2023-12-29T02:36:48;5.07;;;1.93;;
16393;SDS011;8306;51.128;4.476;2023-12-29T02:39:14;7.27;;;2.20;;
16393;SDS011;8306;51.128;4.476;2023-12-29T02:41:41;7.17;;;2.07;;
16393;SDS011;8306;51.128;4.476;2023-12-29T02:44:07;8.07;;;2.00;;
16393;SDS011;8306;51.128;4.476;2023-12-29T02:46:34;7.33;;;2.10;;
16393;SDS011;8306;51.128;4.476;2023-12-29T02:49:00;8.60;;;2.27;;
16393;SDS011;8306;51.128;4.476;2023-12-29T02:51:27;6.43;;;1.90;;
16393;SDS011;8306;51.128;4.476;2023-12-29T02:53:53;9.20;;;1.87;;
16393;SDS011;8306;51.128;4.476;2023-12-29T02:56:20;8.17;;;1.87;;
16393;SDS011;8306;51.128;4.476;2023-12-29T02:58:46;8.00;;;2.00;;
16393;SDS011;8306;51.128;4.476;2023-12-29T03:01:13;5.90;;;1.80;;
16393;SDS011;8306;51.128;4.476;2023-12-29T03:03:39;5.93;;;1.80;;
16393;SDS011;8306;51.128;4.476;2023-12-29T03:06:06;5.60;;;1.83;;
16393;SDS011;8306;51.128;4.476;2023-12-29T03:08:32;8.10;;;2.10;;
16393;SDS011;8306;51.128;4.476;2023-12-29T03:10:59;6.30;;;1.90;;
16393;SDS011;8306;51.128;4.476;2023-12-29T03:13:25;7.37;;;2.30;;
16393;SDS011;8306;51.128;4.476;2023-12-29T03:15:52;4.93;;;1.53;;
16393;SDS011;8306;51.128;4.476;2023-12-29T03:18:18;5.57;;;1.70;;
16393;SDS011;8306;51.128;4.476;2023-12-29T03:20:45;7.20;;;2.00;;
16393;SDS011;8306;51.128;4.476;2023-12-29T03:23:11;8.80;;;2.20;;
16393;SDS011;8306;51.128;4.476;2023-12-29T03:25:37;8.40;;;2.20;;
16393;SDS011;8306;51.128;4.476;2023-12-29T03:28:04;5.03;;;1.93;;
16393;SDS011;8306;51.128;4.476;2023-12-29T03:30:30;6.37;;;2.00;;
16393;SDS011;8306;51.128;4.476;2023-12-29T03:32:57;7.50;;;2.10;;
16393;SDS011;8306;51.128;4.476;2023-12-29T03:35:23;7.40;;;2.10;;
16393;SDS011;8306;51.128;4.476;2023-12-29T03:37:50;6.07;;;2.07;;
16393;SDS011;8306;51.128;4.476;2023-12-29T03:40:16;6.73;;;1.77;;
16393;SDS011;8306;51.128;4.476;2023-12-29T03:42:43;6.40;;;2.13;;
16393;SDS011;8306;51.128;4.476;2023-12-29T03:45:09;11.30;;;2.17;;
16393;SDS011;8306;51.128;4.476;2023-12-29T03:47:36;5.63;;;1.93;;
16393;SDS011;8306;51.128;4.476;2023-12-29T03:50:02;9.73;;;2.23;;
16393;SDS011;8306;51.128;4.476;2023-12-29T03:52:29;7.57;;;2.20;;
16393;SDS011;8306;51.128;4.476;2023-12-29T03:54:55;7.33;;;2.43;;
16393;SDS011;8306;51.128;4.476;2023-12-29T03:57:22;7.20;;;2.10;;
16393;SDS011;8306;51.128;4.476;2023-12-29T03:59:48;7.57;;;2.17;;
16393;SDS011;8306;51.128;4.476;2023-12-29T04:02:15;7.90;;;2.00;;
16393;SDS011;8306;51.128;4.476;2023-12-29T04:04:41;6.43;;;1.80;;
16393;SDS011;8306;51.128;4.476;2023-12-29T04:07:08;6.07;;;1.67;;
16393;SDS011;8306;51.128;4.476;2023-12-29T04:09:34;7.13;;;1.70;;
16393;SDS011;8306;51.128;4.476;2023-12-29T04:12:01;7.23;;;1.90;;
16393;SDS011;8306;51.128;4.476;2023-12-29T04:14:27;6.27;;;2.17;;
16393;SDS011;8306;51.128;4.476;2023-12-29T04:16:54;10.33;;;2.20;;
16393;SDS011;8306;51.128;4.476;2023-12-29T04:19:20;6.30;;;1.80;;
16393;SDS011;8306;51.128;4.476;2023-12-29T04:21:47;7.23;;;2.13;;
16393;SDS011;8306;51.128;4.476;2023-12-29T04:24:13;7.20;;;1.80;;
16393;SDS011;8306;51.128;4.476;2023-12-29T04:26:39;7.57;;;2.10;;
16393;SDS011;8306;51.128;4.476;2023-12-29T04:29:06;6.63;;;2.13;;
16393;SDS011;8306;51.128;4.476;2023-12-29T04:31:32;7.57;;;2.13;;
16393;SDS011;8306;51.128;4.476;2023-12-29T04:33:59;6.67;;;2.00;;
16393;SDS011;8306;51.128;4.476;2023-12-29T04:36:25;10.80;;;2.50;;
16393;SDS011;8306;51.128;4.476;2023-12-29T04:38:52;7.10;;;1.90;;
16393;SDS011;8306;51.128;4.476;2023-12-29T04:41:18;7.70;;;2.30;;
16393;SDS011;8306;51.128;4.476;2023-12-29T04:43:45;8.30;;;1.97;;
16393;SDS011;8306;51.128;4.476;2023-12-29T04:46:11;7.03;;;1.87;;
16393;SDS011;8306;51.128;4.476;2023-12-29T04:48:38;7.40;;;1.90;;
16393;SDS011;8306;51.128;4.476;2023-12-29T04:51:04;6.23;;;1.83;;
16393;SDS011;8306;51.128;4.476;2023-12-29T04:53:31;7.87;;;1.87;;
16393;SDS011;8306;51.128;4.476;2023-12-29T04:55:57;5.17;;;1.70;;
16393;SDS011;8306;51.128;4.476;2023-12-29T04:58:24;6.60;;;1.83;;
16393;SDS011;8306;51.128;4.476;2023-12-29T05:00:50;8.07;;;2.10;;
16393;SDS011;8306;51.128;4.476;2023-12-29T05:03:17;5.70;;;2.00;;
16393;SDS011;8306;51.128;4.476;2023-12-29T05:05:43;7.33;;;2.10;;
16393;SDS011;8306;51.128;4.476;2023-12-29T05:08:10;10.40;;;2.17;;
16393;SDS011;8306;51.128;4.476;2023-12-29T05:10:36;6.07;;;1.50;;
16393;SDS011;8306;51.128;4.476;2023-12-29T05:13:03;6.57;;;1.87;;
16393;SDS011;8306;51.128;4.476;2023-12-29T05:15:29;7.40;;;1.77;;
16393;SDS011;8306;51.128;4.476;2023-12-29T05:17:56;8.10;;;2.27;;
16393;SDS011;8306;51.128;4.476;2023-12-29T05:20:22;6.83;;;2.10;;
16393;SDS011;8306;51.128;4.476;2023-12-29T05:22:48;5.20;;;1.80;;
16393;SDS011;8306;51.128;4.476;2023-12-29T05:25:15;6.57;;;2.27;;
16393;SDS011;8306;51.128;4.476;2023-12-29T05:27:41;6.63;;;2.20;;
16393;SDS011;8306;51.128;4.476;2023-12-29T05:30:08;6.23;;;2.00;;
16393;SDS011;8306;51.128;4.476;2023-12-29T05:32:35;8.20;;;1.60;;
16393;SDS011;8306;51.128;4.476;2023-12-29T05:35:01;4.73;;;1.37;;
16393;SDS011;8306;51.128;4.476;2023-12-29T05:37:27;6.60;;;1.63;;
16393;SDS011;8306;51.128;4.476;2023-12-29T05:39:54;5.57;;;1.80;;
16393;SDS011;8306;51.128;4.476;2023-12-29T05:42:20;6.03;;;1.67;;
16393;SDS011;8306;51.128;4.476;2023-12-29T05:44:47;6.67;;;1.60;;
16393;SDS011;8306;51.128;4.476;2023-12-29T05:47:13;8.83;;;2.43;;
16393;SDS011;8306;51.128;4.476;2023-12-29T05:49:40;5.63;;;1.73;;
16393;SDS011;8306;51.128;4.476;2023-12-29T05:52:06;8.03;;;2.00;;
16393;SDS011;8306;51.128;4.476;2023-12-29T05:54:33;8.70;;;1.90;;
16393;SDS011;8306;51.128;4.476;2023-12-29T05:56:59;6.73;;;2.00;;
16393;SDS011;8306;51.128;4.476;2023-12-29T05:59:26;5.93;;;1.57;;
16393;SDS011;8306;51.128;4.476;2023-12-29T06:01:52;5.77;;;1.70;;
16393;SDS011;8306;51.128;4.476;2023-12-29T06:04:19;7.60;;;2.53;;
16393;SDS011;8306;51.128;4.476;2023-12-29T06:06:45;7.67;;;1.80;;
16393;SDS011;8306;51.128;4.476;2023-12-29T06:09:12;5.90;;;1.70;;
16393;SDS011;8306;51.128;4.476;2023-12-29T06:11:38;6.33;;;1.63;;
16393;SDS011;8306;51.128;4.476;2023-12-29T06:14:05;7.30;;;2.00;;
16393;SDS011;8306;51.128;4.476;2023-12-29T06:16:31;5.87;;;1.90;;
16393;SDS011;8306;51.128;4.476;2023-12-29T06:18:58;7.57;;;1.93;;
16393;SDS011;8306;51.128;4.476;2023-12-29T06:21:24;6.63;;;1.63;;
16393;SDS011;8306;51.128;4.476;2023-12-29T06:23:51;6.17;;;1.53;;
16393;SDS011;8306;51.128;4.476;2023-12-29T06:26:17;6.40;;;2.00;;
16393;SDS011;8306;51.128;4.476;2023-12-29T06:28:44;6.63;;;1.93;;
16393;SDS011;8306;51.128;4.476;2023-12-29T06:31:10;9.47;;;2.40;;
16393;SDS011;8306;51.128;4.476;2023-12-29T06:33:40;9.30;;;2.00;;
16393;SDS011;8306;51.128;4.476;2023-12-29T06:36:03;9.90;;;2.03;;
16393;SDS011;8306;51.128;4.476;2023-12-29T06:38:29;10.63;;;2.20;;
16393;SDS011;8306;51.128;4.476;2023-12-29T06:40:56;6.70;;;2.17;;
16393;SDS011;8306;51.128;4.476;2023-12-29T06:43:22;6.60;;;1.90;;
16393;SDS011;8306;51.128;4.476;2023-12-29T06:45:49;6.97;;;1.90;;
16393;SDS011;8306;51.128;4.476;2023-12-29T06:48:15;7.00;;;1.83;;
16393;SDS011;8306;51.128;4.476;2023-12-29T06:50:42;6.03;;;1.57;;
16393;SDS011;8306;51.128;4.476;2023-12-29T06:53:08;6.70;;;2.00;;
16393;SDS011;8306;51.128;4.476;2023-12-29T06:55:35;6.17;;;1.80;;
16393;SDS011;8306;51.128;4.476;2023-12-29T06:58:01;5.93;;;1.60;;
16393;SDS011;8306;51.128;4.476;2023-12-29T07:00:28;4.87;;;1.30;;
16393;SDS011;8306;51.128;4.476;2023-12-29T07:02:54;4.83;;;2.03;;
16393;SDS011;8306;51.128;4.476;2023-12-29T07:05:21;4.00;;;1.20;;
16393;SDS011;8306;51.128;4.476;2023-12-29T07:07:47;4.57;;;1.33;;
16393;SDS011;8306;51.128;4.476;2023-12-29T07:10:14;3.97;;;1.30;;
16393;SDS011;8306;51.128;4.476;2023-12-29T07:12:40;3.03;;;1.20;;
16393;SDS011;8306;51.128;4.476;2023-12-29T07:15:07;3.80;;;1.13;;
16393;SDS011;8306;51.128;4.476;2023-12-29T07:17:33;2.63;;;1.40;;
16393;SDS011;8306;51.128;4.476;2023-12-29T07:20:00;5.20;;;1.50;;
16393;SDS011;8306;51.128;4.476;2023-12-29T07:22:26;5.23;;;1.40;;
16393;SDS011;8306;51.128;4.476;2023-12-29T07:24:52;4.90;;;1.30;;
16393;SDS011;8306;51.128;4.476;2023-12-29T07:27:19;4.07;;;1.33;;
16393;SDS011;8306;51.128;4.476;2023-12-29T07:29:45;2.97;;;1.07;;
16393;SDS011;8306;51.128;4.476;2023-12-29T07:32:12;4.17;;;1.50;;
16393;SDS011;8306;51.128;4.476;2023-12-29T07:34:38;6.33;;;1.57;;
16393;SDS011;8306;51.128;4.476;2023-12-29T07:37:05;4.93;;;1.43;;
16393;SDS011;8306;51.128;4.476;2023-12-29T07:39:31;2.73;;;1.00;;
16393;SDS011;8306;51.128;4.476;2023-12-29T07:41:58;2.90;;;1.30;;
16393;SDS011;8306;51.128;4.476;2023-12-29T07:44:24;3.77;;;1.50;;
16393;SDS011;8306;51.128;4.476;2023-12-29T07:46:51;3.90;;;1.33;;
16393;SDS011;8306;51.128;4.476;2023-12-29T07:49:17;3.23;;;1.10;;
16393;SDS011;8306;51.128;4.476;2023-12-29T07:51:46;3.97;;;1.20;;
16393;SDS011;8306;51.128;4.476;2023-12-29T07:54:10;3.43;;;1.17;;
16393;SDS011;8306;51.128;4.476;2023-12-29T07:56:37;1.87;;;0.83;;
16393;SDS011;8306;51.128;4.476;2023-12-29T07:59:03;2.30;;;0.80;;
16393;SDS011;8306;51.128;4.476;2023-12-29T08:01:30;2.37;;;0.87;;
16393;SDS011;8306;51.128;4.476;2023-12-29T08:03:56;2.17;;;0.97;;
16393;SDS011;8306;51.128;4.476;2023-12-29T08:06:23;3.23;;;0.83;;
16393;SDS011;8306;51.128;4.476;2023-12-29T08:08:49;2.30;;;0.80;;
16393;SDS011;8306;51.128;4.476;2023-12-29T08:11:16;1.97;;;0.80;;
16393;SDS011;8306;51.128;4.476;2023-12-29T08:13:46;1.33;;;0.70;;
16393;SDS011;8306;51.128;4.476;2023-12-29T08:16:11;2.17;;;0.67;;
16393;SDS011;8306;51.128;4.476;2023-12-29T08:18:38;2.20;;;0.73;;
16393;SDS011;8306;51.128;4.476;2023-12-29T08:21:04;3.13;;;0.87;;
16393;SDS011;8306;51.128;4.476;2023-12-29T08:23:31;3.13;;;0.90;;
16393;SDS011;8306;51.128;4.476;2023-12-29T08:25:57;2.73;;;0.77;;
16393;SDS011;8306;51.128;4.476;2023-12-29T08:28:24;2.43;;;1.00;;
16393;SDS011;8306;51.128;4.476;2023-12-29T08:30:50;3.30;;;1.17;;
16393;SDS011;8306;51.128;4.476;2023-12-29T08:33:16;3.80;;;1.23;;
16393;SDS011;8306;51.128;4.476;2023-12-29T08:35:43;3.33;;;1.87;;
16393;SDS011;8306;51.128;4.476;2023-12-29T08:38:09;3.40;;;1.43;;
16393;SDS011;8306;51.128;4.476;2023-12-29T08:40:36;4.60;;;1.40;;
16393;SDS011;8306;51.128;4.476;2023-12-29T08:43:02;3.60;;;1.40;;
16393;SDS011;8306;51.128;4.476;2023-12-29T08:45:29;2.67;;;1.20;;
16393;SDS011;8306;51.128;4.476;2023-12-29T08:47:55;2.73;;;1.10;;
16393;SDS011;8306;51.128;4.476;2023-12-29T08:50:22;3.00;;;1.40;;
16393;SDS011;8306;51.128;4.476;2023-12-29T08:52:48;3.20;;;1.27;;
16393;SDS011;8306;51.128;4.476;2023-12-29T08:55:15;3.63;;;1.20;;
16393;SDS011;8306;51.128;4.476;2023-12-29T08:57:41;2.33;;;1.00;;
16393;SDS011;8306;51.128;4.476;2023-12-29T09:00:08;1.30;;;0.87;;
16393;SDS011;8306;51.128;4.476;2023-12-29T09:02:34;1.23;;;0.50;;
16393;SDS011;8306;51.128;4.476;2023-12-29T09:05:01;0.90;;;0.50;;
16393;SDS011;8306;51.128;4.476;2023-12-29T09:07:27;0.90;;;0.30;;
16393;SDS011;8306;51.128;4.476;2023-12-29T09:09:54;0.60;;;0.40;;
16393;SDS011;8306;51.128;4.476;2023-12-29T09:12:20;0.83;;;0.40;;
16393;SDS011;8306;51.128;4.476;2023-12-29T09:14:47;0.50;;;0.20;;
16393;SDS011;8306;51.128;4.476;2023-12-29T09:17:13;0.60;;;0.30;;
16393;SDS011;8306;51.128;4.476;2023-12-29T09:19:40;1.17;;;0.60;;
16393;SDS011;8306;51.128;4.476;2023-12-29T09:22:06;2.90;;;2.23;;
16393;SDS011;8306;51.128;4.476;2023-12-29T09:24:32;3.77;;;3.33;;
16393;SDS011;8306;51.128;4.476;2023-12-29T09:26:59;4.13;;;1.63;;
16393;SDS011;8306;51.128;4.476;2023-12-29T09:29:25;4.27;;;1.67;;
16393;SDS011;8306;51.128;4.476;2023-12-29T09:31:52;3.83;;;1.33;;
16393;SDS011;8306;51.128;4.476;2023-12-29T09:34:18;4.10;;;1.60;;
16393;SDS011;8306;51.128;4.476;2023-12-29T09:36:45;5.17;;;1.60;;
16393;SDS011;8306;51.128;4.476;2023-12-29T09:39:11;4.50;;;1.50;;
16393;SDS011;8306;51.128;4.476;2023-12-29T09:41:39;4.40;;;1.73;;
16393;SDS011;8306;51.128;4.476;2023-12-29T09:44:04;3.57;;;1.40;;
16393;SDS011;8306;51.128;4.476;2023-12-29T09:46:31;3.43;;;1.33;;
16393;SDS011;8306;51.128;4.476;2023-12-29T09:48:58;4.17;;;1.30;;
16393;SDS011;8306;51.128;4.476;2023-12-29T09:51:24;5.13;;;1.03;;
16393;SDS011;8306;51.128;4.476;2023-12-29T09:53:50;2.20;;;1.10;;
16393;SDS011;8306;51.128;4.476;2023-12-29T09:56:17;3.20;;;1.07;;
16393;SDS011;8306;51.128;4.476;2023-12-29T09:58:43;2.93;;;1.10;;
16393;SDS011;8306;51.128;4.476;2023-12-29T10:01:10;2.43;;;0.97;;
16393;SDS011;8306;51.128;4.476;2023-12-29T10:03:36;2.37;;;1.00;;
16393;SDS011;8306;51.128;4.476;2023-12-29T10:06:03;3.53;;;1.17;;
16393;SDS011;8306;51.128;4.476;2023-12-29T10:08:29;1.97;;;0.80;;
16393;SDS011;8306;51.128;4.476;2023-12-29T10:10:56;2.30;;;0.77;;
16393;SDS011;8306;51.128;4.476;2023-12-29T10:13:22;2.23;;;0.70;;
16393;SDS011;8306;51.128;4.476;2023-12-29T10:18:28;2.80;;;0.80;;
16393;SDS011;8306;51.128;4.476;2023-12-29T10:23:24;2.57;;;0.50;;
16393;SDS011;8306;51.128;4.476;2023-12-29T10:25:49;2.10;;;0.70;;
16393;SDS011;8306;51.128;4.476;2023-12-29T10:28:15;1.17;;;0.47;;
16393;SDS011;8306;51.128;4.476;2023-12-29T10:30:42;1.37;;;0.50;;
16393;SDS011;8306;51.128;4.476;2023-12-29T10:33:08;1.00;;;0.30;;
16393;SDS011;8306;51.128;4.476;2023-12-29T10:35:35;1.00;;;0.40;;
16393;SDS011;8306;51.128;4.476;2023-12-29T10:38:10;1.37;;;0.40;;
16393;SDS011;8306;51.128;4.476;2023-12-29T10:40:37;0.90;;;0.47;;
16393;SDS011;8306;51.128;4.476;2023-12-29T10:43:03;0.70;;;0.37;;
16393;SDS011;8306;51.128;4.476;2023-12-29T10:45:32;0.90;;;0.40;;
16393;SDS011;8306;51.128;4.476;2023-12-29T10:48:02;2.60;;;0.50;;
16393;SDS011;8306;51.128;4.476;2023-12-29T10:50:28;1.63;;;0.50;;
16393;SDS011;8306;51.128;4.476;2023-12-29T10:53:10;2.07;;;0.80;;
16393;SDS011;8306;51.128;4.476;2023-12-29T10:55:36;2.17;;;1.07;;
16393;SDS011;8306;51.128;4.476;2023-12-29T10:58:03;2.40;;;1.00;;
16393;SDS011;8306;51.128;4.476;2023-12-29T11:00:29;2.37;;;1.10;;
16393;SDS011;8306;51.128;4.476;2023-12-29T11:02:56;2.77;;;1.30;;
16393;SDS011;8306;51.128;4.476;2023-12-29T11:05:24;3.67;;;1.40;;
16393;SDS011;8306;51.128;4.476;2023-12-29T11:07:49;6.03;;;1.70;;
16393;SDS011;8306;51.128;4.476;2023-12-29T11:10:15;6.37;;;1.83;;
16393;SDS011;8306;51.128;4.476;2023-12-29T11:12:42;5.87;;;2.13;;
16393;SDS011;8306;51.128;4.476;2023-12-29T11:15:08;5.30;;;1.90;;
16393;SDS011;8306;51.128;4.476;2023-12-29T11:17:35;3.70;;;1.70;;
16393;SDS011;8306;51.128;4.476;2023-12-29T11:20:02;6.57;;;2.00;;
16393;SDS011;8306;51.128;4.476;2023-12-29T11:22:28;4.33;;;1.70;;
16393;SDS011;8306;51.128;4.476;2023-12-29T11:24:54;4.53;;;1.60;;
16393;SDS011;8306;51.128;4.476;2023-12-29T11:27:20;5.83;;;2.00;;
16393;SDS011;8306;51.128;4.476;2023-12-29T11:29:47;6.07;;;1.83;;
16393;SDS011;8306;51.128;4.476;2023-12-29T11:32:18;3.43;;;1.63;;
16393;SDS011;8306;51.128;4.476;2023-12-29T11:34:51;7.17;;;1.43;;
16393;SDS011;8306;51.128;4.476;2023-12-29T11:37:16;3.17;;;1.70;;
16393;SDS011;8306;51.128;4.476;2023-12-29T11:40:18;4.73;;;2.03;;
16393;SDS011;8306;51.128;4.476;2023-12-29T11:42:27;4.37;;;2.10;;
16393;SDS011;8306;51.128;4.476;2023-12-29T11:44:52;5.53;;;1.70;;
16393;SDS011;8306;51.128;4.476;2023-12-29T11:47:34;5.73;;;1.70;;
16393;SDS011;8306;51.128;4.476;2023-12-29T11:50:01;7.30;;;2.20;;
16393;SDS011;8306;51.128;4.476;2023-12-29T11:52:33;5.43;;;1.97;;
16393;SDS011;8306;51.128;4.476;2023-12-29T11:57:37;3.63;;;1.80;;
16393;SDS011;8306;51.128;4.476;2023-12-29T12:00:03;5.20;;;2.10;;
16393;SDS011;8306;51.128;4.476;2023-12-29T12:02:30;3.93;;;1.50;;
16393;SDS011;8306;51.128;4.476;2023-12-29T12:04:56;5.27;;;2.20;;
16393;SDS011;8306;51.128;4.476;2023-12-29T12:09:52;5.87;;;1.90;;
16393;SDS011;8306;51.128;4.476;2023-12-29T12:15:30;5.57;;;2.07;;
16393;SDS011;8306;51.128;4.476;2023-12-29T12:17:51;3.47;;;1.40;;
16393;SDS011;8306;51.128;4.476;2023-12-29T12:20:17;4.47;;;1.87;;
16393;SDS011;8306;51.128;4.476;2023-12-29T12:22:44;5.57;;;1.87;;
16393;SDS011;8306;51.128;4.476;2023-12-29T12:25:11;4.30;;;1.40;;
16393;SDS011;8306;51.128;4.476;2023-12-29T12:27:40;3.00;;;1.40;;
16393;SDS011;8306;51.128;4.476;2023-12-29T12:30:07;4.07;;;1.00;;
16393;SDS011;8306;51.128;4.476;2023-12-29T12:32:33;4.03;;;1.57;;
16393;SDS011;8306;51.128;4.476;2023-12-29T12:35:00;2.43;;;1.00;;
16393;SDS011;8306;51.128;4.476;2023-12-29T12:37:27;2.93;;;1.13;;
16393;SDS011;8306;51.128;4.476;2023-12-29T12:39:53;2.70;;;1.20;;
16393;SDS011;8306;51.128;4.476;2023-12-29T12:42:20;2.03;;;1.00;;
16393;SDS011;8306;51.128;4.476;2023-12-29T12:47:34;2.57;;;1.20;;
16393;SDS011;8306;51.128;4.476;2023-12-29T12:49:53;2.20;;;1.03;;
16393;SDS011;8306;51.128;4.476;2023-12-29T12:52:20;2.43;;;0.97;;
16393;SDS011;8306;51.128;4.476;2023-12-29T12:54:46;2.23;;;0.80;;
16393;SDS011;8306;51.128;4.476;2023-12-29T12:57:13;2.67;;;1.23;;
16393;SDS011;8306;51.128;4.476;2023-12-29T12:59:39;3.73;;;1.20;;
16393;SDS011;8306;51.128;4.476;2023-12-29T13:02:06;0.87;;;0.60;;
16393;SDS011;8306;51.128;4.476;2023-12-29T13:04:32;1.97;;;0.70;;
16393;SDS011;8306;51.128;4.476;2023-12-29T13:06:59;1.27;;;0.93;;
16393;SDS011;8306;51.128;4.476;2023-12-29T13:09:25;2.27;;;0.53;;
16393;SDS011;8306;51.128;4.476;2023-12-29T13:11:58;1.33;;;0.50;;
16393;SDS011;8306;51.128;4.476;2023-12-29T13:14:21;1.83;;;0.60;;
16393;SDS011;8306;51.128;4.476;2023-12-29T13:16:47;1.00;;;0.70;;
16393;SDS011;8306;51.128;4.476;2023-12-29T13:19:20;2.00;;;0.63;;
16393;SDS011;8306;51.128;4.476;2023-12-29T13:21:47;1.63;;;0.60;;
16393;SDS011;8306;51.128;4.476;2023-12-29T13:24:16;0.77;;;0.40;;
16393;SDS011;8306;51.128;4.476;2023-12-29T13:26:43;2.27;;;0.90;;
16393;SDS011;8306;51.128;4.476;2023-12-29T13:29:08;0.80;;;0.60;;
16393;SDS011;8306;51.128;4.476;2023-12-29T13:31:35;1.07;;;0.50;;
16393;SDS011;8306;51.128;4.476;2023-12-29T13:34:03;1.43;;;0.60;;
16393;SDS011;8306;51.128;4.476;2023-12-29T13:36:32;1.17;;;0.50;;
16393;SDS011;8306;51.128;4.476;2023-12-29T13:39:08;1.50;;;0.80;;
16393;SDS011;8306;51.128;4.476;2023-12-29T13:41:35;1.93;;;0.70;;
16393;SDS011;8306;51.128;4.476;2023-12-29T13:44:02;1.67;;;0.80;;
16393;SDS011;8306;51.128;4.476;2023-12-29T13:46:28;1.27;;;0.80;;
16393;SDS011;8306;51.128;4.476;2023-12-29T13:48:55;1.27;;;0.90;;
16393;SDS011;8306;51.128;4.476;2023-12-29T13:51:24;2.00;;;1.00;;
16393;SDS011;8306;51.128;4.476;2023-12-29T13:53:57;1.43;;;0.90;;
16393;SDS011;8306;51.128;4.476;2023-12-29T13:56:23;1.40;;;1.07;;
16393;SDS011;8306;51.128;4.476;2023-12-29T13:58:52;2.67;;;1.33;;
16393;SDS011;8306;51.128;4.476;2023-12-29T14:01:19;2.07;;;0.90;;
16393;SDS011;8306;51.128;4.476;2023-12-29T14:06:22;2.83;;;1.00;;
16393;SDS011;8306;51.128;4.476;2023-12-29T14:08:47;2.87;;;1.23;;
16393;SDS011;8306;51.128;4.476;2023-12-29T14:11:14;2.90;;;1.50;;
16393;SDS011;8306;51.128;4.476;2023-12-29T14:13:43;2.57;;;1.37;;
16393;SDS011;8306;51.128;4.476;2023-12-29T14:16:10;2.30;;;1.23;;
16393;SDS011;8306;51.128;4.476;2023-12-29T14:18:43;2.60;;;1.23;;
16393;SDS011;8306;51.128;4.476;2023-12-29T14:21:52;2.00;;;1.10;;
16393;SDS011;8306;51.128;4.476;2023-12-29T14:26:38;3.37;;;1.03;;
16393;SDS011;8306;51.128;4.476;2023-12-29T14:29:04;2.60;;;1.00;;
16393;SDS011;8306;51.128;4.476;2023-12-29T14:31:48;1.83;;;0.90;;
16393;SDS011;8306;51.128;4.476;2023-12-29T14:34:05;1.53;;;0.93;;
16393;SDS011;8306;51.128;4.476;2023-12-29T14:36:32;1.70;;;0.90;;
16393;SDS011;8306;51.128;4.476;2023-12-29T14:38:58;1.93;;;0.87;;
16393;SDS011;8306;51.128;4.476;2023-12-29T14:41:24;2.73;;;1.07;;
16393;SDS011;8306;51.128;4.476;2023-12-29T14:43:51;1.63;;;1.07;;
16393;SDS011;8306;51.128;4.476;2023-12-29T14:46:17;2.53;;;1.20;;
16393;SDS011;8306;51.128;4.476;2023-12-29T14:48:44;2.43;;;1.30;;
16393;SDS011;8306;51.128;4.476;2023-12-29T14:51:10;2.63;;;1.07;;
16393;SDS011;8306;51.128;4.476;2023-12-29T14:53:37;1.60;;;1.10;;
16393;SDS011;8306;51.128;4.476;2023-12-29T14:56:03;2.47;;;1.00;;
16393;SDS011;8306;51.128;4.476;2023-12-29T14:58:30;2.53;;;1.00;;
16393;SDS011;8306;51.128;4.476;2023-12-29T15:00:59;2.87;;;1.20;;
16393;SDS011;8306;51.128;4.476;2023-12-29T15:03:26;2.87;;;0.83;;
16393;SDS011;8306;51.128;4.476;2023-12-29T15:05:52;2.20;;;0.80;;
16393;SDS011;8306;51.128;4.476;2023-12-29T15:08:18;2.00;;;1.00;;
16393;SDS011;8306;51.128;4.476;2023-12-29T15:10:45;1.60;;;0.70;;
16393;SDS011;8306;51.128;4.476;2023-12-29T15:13:11;2.87;;;1.30;;
16393;SDS011;8306;51.128;4.476;2023-12-29T15:15:38;2.30;;;1.20;;
16393;SDS011;8306;51.128;4.476;2023-12-29T15:18:04;2.10;;;1.07;;
16393;SDS011;8306;51.128;4.476;2023-12-29T15:20:31;2.37;;;1.00;;
16393;SDS011;8306;51.128;4.476;2023-12-29T15:22:57;3.87;;;1.30;;